createdAt,value
2019-03-20T00:02:03.882Z,99.20
2019-03-20T00:04:33.186Z,99.30
2019-03-20T00:07:02.038Z,99.60
2019-03-20T00:09:30.839Z,99.70
2019-03-20T00:11:59.684Z,99.70
2019-03-20T00:14:28.519Z,99.90
2019-03-20T00:16:57.439Z,99.80
2019-03-20T00:19:26.380Z,99.90
2019-03-20T00:21:55.196Z,99.60
2019-03-20T00:24:24.023Z,99.60
2019-03-20T00:26:53.302Z,99.50
2019-03-20T00:29:22.199Z,99.60
2019-03-20T00:31:51.065Z,99.80
2019-03-20T00:34:20.020Z,99.90
2019-03-20T00:36:48.883Z,99.90
2019-03-20T00:39:17.755Z,99.90
2019-03-20T00:41:46.590Z,99.90
2019-03-20T00:44:15.593Z,99.90
2019-03-20T00:46:44.460Z,99.90
2019-03-20T00:49:13.300Z,99.90
2019-03-20T00:51:42.102Z,99.90
2019-03-20T00:54:11.304Z,99.90
2019-03-20T00:56:40.118Z,99.90
2019-03-20T00:59:08.939Z,99.90
2019-03-20T01:01:37.877Z,99.90
2019-03-20T01:04:06.782Z,99.90
2019-03-20T01:06:35.743Z,99.90
2019-03-20T01:09:06.379Z,99.90
2019-03-20T01:11:35.300Z,99.90
2019-03-20T01:14:04.226Z,99.90
2019-03-20T01:16:34.072Z,99.90
2019-03-20T01:19:02.968Z,99.90
2019-03-20T01:21:32.049Z,99.90
2019-03-20T01:24:00.975Z,99.90
2019-03-20T01:26:30.082Z,99.90
2019-03-20T01:28:58.916Z,99.90
2019-03-20T01:31:27.836Z,99.90
2019-03-20T01:33:56.948Z,99.90
2019-03-20T01:36:26.015Z,99.90
2019-03-20T01:38:54.876Z,99.90
2019-03-20T01:41:23.698Z,99.90
2019-03-20T01:43:52.675Z,99.90
2019-03-20T01:46:21.576Z,99.90
2019-03-20T01:48:50.420Z,99.90
2019-03-20T01:51:20.730Z,99.90
2019-03-20T01:53:49.827Z,99.90
2019-03-20T01:56:18.814Z,99.90
2019-03-20T01:58:47.834Z,99.90
2019-03-20T02:01:16.842Z,99.90
2019-03-20T02:03:45.935Z,99.90
2019-03-20T02:06:14.927Z,99.90
2019-03-20T02:08:44.105Z,99.90
2019-03-20T02:11:13.362Z,99.90
2019-03-20T02:13:42.192Z,99.90
2019-03-20T02:16:11.075Z,99.90
2019-03-20T02:18:40.055Z,99.90
2019-03-20T02:21:08.894Z,99.90
2019-03-20T02:23:37.773Z,99.90
2019-03-20T02:26:07.143Z,99.90
2019-03-20T02:28:36.357Z,99.90
2019-03-20T02:31:05.667Z,99.90
2019-03-20T02:33:53.688Z,99.90
2019-03-20T02:36:22.988Z,99.90
2019-03-20T02:38:51.834Z,99.90
2019-03-20T02:41:20.662Z,99.90
2019-03-20T02:43:49.515Z,99.90
2019-03-20T02:46:18.354Z,99.90
2019-03-20T02:48:47.340Z,99.90
2019-03-20T02:51:16.932Z,99.90
2019-03-20T02:53:45.801Z,99.90
2019-03-20T02:56:14.972Z,99.90
2019-03-20T02:58:44.196Z,99.90
2019-03-20T03:01:13.173Z,99.90
2019-03-20T03:03:42.224Z,99.90
2019-03-20T03:06:11.179Z,99.90
2019-03-20T03:08:40.070Z,99.90
2019-03-20T03:11:09.258Z,99.90
2019-03-20T03:13:38.110Z,99.90
2019-03-20T03:16:07.042Z,99.90
2019-03-20T03:18:35.877Z,99.90
2019-03-20T03:21:04.891Z,99.90
2019-03-20T03:23:33.716Z,99.90
2019-03-20T03:26:02.552Z,99.90
2019-03-20T03:28:31.395Z,99.90
2019-03-20T03:31:00.509Z,99.90
2019-03-20T03:33:29.376Z,99.90
2019-03-20T03:35:58.327Z,99.90
2019-03-20T03:38:27.175Z,99.90
2019-03-20T03:40:56.479Z,99.90
2019-03-20T03:43:25.423Z,99.90
2019-03-20T03:45:54.403Z,99.90
2019-03-20T03:48:23.535Z,99.90
2019-03-20T03:50:52.477Z,99.90
2019-03-20T03:53:21.292Z,99.90
2019-03-20T03:55:50.208Z,99.90
2019-03-20T03:58:19.107Z,99.90
2019-03-20T04:00:48.111Z,99.90
2019-03-20T04:03:17.069Z,99.90
2019-03-20T04:05:46.360Z,99.90
2019-03-20T04:08:15.358Z,99.90
2019-03-20T04:10:44.161Z,99.90
2019-03-20T04:13:13.385Z,99.90
2019-03-20T04:15:42.295Z,99.90
2019-03-20T04:18:11.226Z,99.90
2019-03-20T04:20:40.456Z,99.90
2019-03-20T04:23:09.683Z,99.90
2019-03-20T04:25:38.546Z,99.90
2019-03-20T04:28:07.492Z,99.90
2019-03-20T04:30:36.316Z,99.90
2019-03-20T04:33:05.553Z,99.90
2019-03-20T04:35:34.469Z,99.90
2019-03-20T04:38:03.419Z,99.90
2019-03-20T04:40:32.369Z,99.90
2019-03-20T04:43:01.283Z,99.90
2019-03-20T04:45:30.197Z,99.90
2019-03-20T04:47:59.055Z,99.90
2019-03-20T04:50:27.943Z,99.90
2019-03-20T04:52:56.813Z,99.90
2019-03-20T04:55:25.696Z,99.90
2019-03-20T04:57:54.537Z,99.90
2019-03-20T05:00:23.570Z,99.90
2019-03-20T05:02:52.459Z,99.90
2019-03-20T05:05:21.404Z,99.90
2019-03-20T05:07:50.221Z,99.90
2019-03-20T05:10:19.166Z,99.90
2019-03-20T05:12:48.123Z,99.90
2019-03-20T05:15:17.004Z,99.90
2019-03-20T05:17:46.210Z,99.90
2019-03-20T05:20:15.199Z,99.90
2019-03-20T05:22:44.054Z,99.90
2019-03-20T05:25:13.065Z,99.90
2019-03-20T05:27:42.146Z,99.90
2019-03-20T05:30:12.051Z,99.90
2019-03-20T05:32:41.179Z,99.90
2019-03-20T05:35:10.506Z,99.90
2019-03-20T05:37:39.616Z,99.90
2019-03-20T05:40:09.799Z,99.90
2019-03-20T05:42:38.799Z,99.90
2019-03-20T05:45:09.109Z,99.90
2019-03-20T05:47:38.059Z,99.90
2019-03-20T05:50:07.431Z,99.90
2019-03-20T05:52:36.260Z,99.90
2019-03-20T05:55:05.528Z,99.90
2019-03-20T05:57:34.657Z,99.90
2019-03-20T06:00:04.758Z,99.90
2019-03-20T06:02:34.196Z,99.90
2019-03-20T06:05:03.263Z,99.90
2019-03-20T06:07:32.116Z,99.90
2019-03-20T06:10:01.023Z,99.90
2019-03-20T06:12:30.200Z,99.90
2019-03-20T06:14:59.139Z,99.90
2019-03-20T06:17:28.127Z,99.90
2019-03-20T06:19:57.009Z,99.90
2019-03-20T06:22:25.903Z,99.90
2019-03-20T06:24:54.759Z,99.90
2019-03-20T06:27:23.628Z,99.90
2019-03-20T06:29:52.763Z,99.90
2019-03-20T06:32:21.634Z,99.90
2019-03-20T06:34:55.271Z,99.90
2019-03-20T06:37:32.217Z,99.90
2019-03-20T06:39:55.220Z,99.90
2019-03-20T06:42:24.142Z,99.70
2019-03-20T06:44:53.139Z,99.30
2019-03-20T06:47:22.668Z,99.10
2019-03-20T06:49:51.580Z,98.60
2019-03-20T06:52:21.522Z,98.00
2019-03-20T06:54:50.394Z,97.00
2019-03-20T06:57:19.791Z,96.30
2019-03-20T07:00:28.652Z,95.80
2019-03-20T07:02:58.331Z,94.80
2019-03-20T07:05:50.625Z,94.90
2019-03-20T07:08:21.227Z,93.90
2019-03-20T07:11:11.509Z,93.60
2019-03-20T07:13:40.950Z,93.10
2019-03-20T07:16:10.316Z,92.00
2019-03-20T07:18:39.674Z,91.60
2019-03-20T07:21:08.904Z,91.60
2019-03-20T07:23:37.818Z,91.10
2019-03-20T07:26:06.902Z,90.70
2019-03-20T07:28:35.748Z,90.20
2019-03-20T07:31:14.645Z,89.60
2019-03-20T07:33:35.895Z,90.00
2019-03-20T07:36:05.053Z,89.10
2019-03-20T07:38:34.380Z,88.80
2019-03-20T07:41:03.307Z,88.90
2019-03-20T07:43:32.236Z,87.50
2019-03-20T07:46:01.223Z,87.10
2019-03-20T07:48:30.469Z,84.90
2019-03-20T07:50:59.380Z,84.30
2019-03-20T07:53:28.212Z,82.30
2019-03-20T07:55:57.521Z,79.80
2019-03-20T07:58:26.359Z,81.50
2019-03-20T08:00:55.263Z,78.80
2019-03-20T08:03:24.371Z,78.80
2019-03-20T08:05:53.338Z,77.40
2019-03-20T08:08:22.195Z,78.20
2019-03-20T08:10:51.228Z,77.40
2019-03-20T08:13:20.087Z,76.90
2019-03-20T08:16:08.290Z,76.40
2019-03-20T08:18:37.703Z,74.30
2019-03-20T08:21:06.863Z,77.40
2019-03-20T08:23:39.542Z,73.80
2019-03-20T08:26:08.863Z,74.70
2019-03-20T08:28:37.742Z,73.80
2019-03-20T08:31:06.744Z,73.10
2019-03-20T08:33:35.714Z,69.80
2019-03-20T08:36:05.141Z,71.10
2019-03-20T08:38:34.055Z,71.10
2019-03-20T08:41:02.975Z,70.60
2019-03-20T08:43:32.013Z,69.10
2019-03-20T08:46:00.843Z,68.80
2019-03-20T08:48:29.987Z,68.00
2019-03-20T08:50:58.897Z,67.00
2019-03-20T08:53:27.804Z,65.90
2019-03-20T08:55:57.251Z,64.80
2019-03-20T08:58:26.307Z,64.40
2019-03-20T09:00:55.194Z,65.00
2019-03-20T09:03:24.115Z,64.50
2019-03-20T09:05:56.022Z,65.70
2019-03-20T09:08:29.252Z,63.50
2019-03-20T09:10:55.483Z,63.50
2019-03-20T09:13:24.422Z,63.60
2019-03-20T09:15:53.625Z,65.10
2019-03-20T09:18:22.616Z,63.60
2019-03-20T09:20:51.701Z,63.80
2019-03-20T09:23:20.535Z,61.70
2019-03-20T09:25:49.519Z,61.30
2019-03-20T09:28:18.509Z,57.70
2019-03-20T09:30:47.738Z,57.70
2019-03-20T09:33:16.619Z,56.20
2019-03-20T09:35:45.819Z,56.30
2019-03-20T09:38:14.722Z,60.20
2019-03-20T09:40:43.854Z,52.90
2019-03-20T09:43:13.027Z,53.60
2019-03-20T09:45:41.927Z,53.30
2019-03-20T09:48:11.475Z,54.60
2019-03-20T09:50:40.461Z,50.80
2019-03-20T09:53:09.782Z,52.70
2019-03-20T09:55:39.399Z,53.20
2019-03-20T09:58:11.905Z,52.40
2019-03-20T10:00:40.237Z,50.80
2019-03-20T10:03:10.010Z,50.40
2019-03-20T10:05:39.265Z,50.40
2019-03-20T10:08:08.166Z,47.50
2019-03-20T10:10:40.253Z,43.80
2019-03-20T10:13:09.801Z,44.60
2019-03-20T10:15:38.685Z,44.30
2019-03-20T10:18:07.764Z,46.90
2019-03-20T10:20:36.798Z,41.30
2019-03-20T10:23:05.842Z,40.90
2019-03-20T10:25:44.171Z,41.20
2019-03-20T10:28:05.433Z,42.20
2019-03-20T10:30:34.308Z,39.70
2019-03-20T10:33:03.233Z,37.50
2019-03-20T10:35:32.352Z,36.80
2019-03-20T10:38:01.272Z,36.80
2019-03-20T10:40:30.440Z,35.90
2019-03-20T10:42:59.371Z,38.40
2019-03-20T10:45:28.363Z,38.20
2019-03-20T10:47:57.357Z,36.90
2019-03-20T10:50:26.779Z,38.70
2019-03-20T10:52:55.799Z,38.70
2019-03-20T10:55:25.006Z,38.60
2019-03-20T10:57:54.008Z,38.80
2019-03-20T11:00:23.513Z,38.80
2019-03-20T11:02:52.992Z,36.10
2019-03-20T11:05:22.218Z,37.80
2019-03-20T11:07:51.216Z,38.10
2019-03-20T11:10:21.575Z,37.20
2019-03-20T11:12:50.541Z,35.10
2019-03-20T11:15:19.693Z,34.40
2019-03-20T11:17:49.141Z,36.60
2019-03-20T11:20:18.092Z,36.60
2019-03-20T11:22:47.479Z,36.60
2019-03-20T11:25:17.699Z,36.60
2019-03-20T11:27:46.622Z,35.10
2019-03-20T11:30:22.862Z,35.50
2019-03-20T11:32:51.792Z,37.20
2019-03-20T11:35:20.884Z,35.40
2019-03-20T11:37:49.918Z,35.40
2019-03-20T11:40:24.293Z,35.50
2019-03-20T11:42:53.387Z,35.50
2019-03-20T11:45:23.560Z,37.20
2019-03-20T11:47:52.991Z,36.80
2019-03-20T11:50:33.040Z,35.80
2019-03-20T11:53:01.955Z,36.60
2019-03-20T11:55:30.873Z,37.20
2019-03-20T11:57:59.849Z,35.70
2019-03-20T12:00:28.953Z,35.70
2019-03-20T12:02:57.919Z,35.40
2019-03-20T12:05:26.891Z,37.30
2019-03-20T12:07:56.428Z,37.90
2019-03-20T12:10:25.621Z,35.70
2019-03-20T12:12:54.533Z,34.50
2019-03-20T12:15:23.533Z,36.00
2019-03-20T12:17:52.611Z,34.80
2019-03-20T12:20:21.697Z,34.90
2019-03-20T12:22:50.749Z,35.30
2019-03-20T12:25:21.764Z,34.80
2019-03-20T12:27:50.743Z,34.50
2019-03-20T12:30:21.798Z,34.70
2019-03-20T12:32:51.038Z,35.00
2019-03-20T12:35:20.072Z,34.20
2019-03-20T12:37:49.056Z,33.80
2019-03-20T12:40:21.167Z,34.60
2019-03-20T12:42:50.312Z,34.00
2019-03-20T12:45:20.707Z,33.80
2019-03-20T12:47:49.674Z,33.00
2019-03-20T12:50:18.834Z,31.50
2019-03-20T12:52:48.023Z,31.00
2019-03-20T12:55:17.131Z,31.70
2019-03-20T12:57:46.421Z,30.00
2019-03-20T13:00:17.481Z,29.50
2019-03-20T13:02:46.858Z,29.10
2019-03-20T13:05:15.999Z,29.30
2019-03-20T13:07:44.996Z,28.70
2019-03-20T13:10:15.727Z,27.60
2019-03-20T13:12:44.864Z,27.50
2019-03-20T13:15:18.739Z,27.10
2019-03-20T13:17:48.017Z,25.90
2019-03-20T13:20:17.369Z,26.80
2019-03-20T13:22:51.644Z,26.30
2019-03-20T13:25:20.629Z,26.80
2019-03-20T13:27:49.641Z,27.30
2019-03-20T13:30:21.616Z,27.30
2019-03-20T13:32:50.546Z,27.00
2019-03-20T13:35:19.636Z,27.30
2019-03-20T13:37:48.605Z,27.40
2019-03-20T13:40:20.205Z,27.60
2019-03-20T13:42:49.139Z,27.60
2019-03-20T13:45:18.313Z,26.80
2019-03-20T13:47:47.220Z,27.30
2019-03-20T13:50:16.297Z,27.20
2019-03-20T13:52:45.287Z,27.40
2019-03-20T13:55:14.652Z,27.10
2019-03-20T13:57:43.579Z,27.40
2019-03-20T14:00:19.825Z,27.60
2019-03-20T14:02:48.911Z,26.40
2019-03-20T14:05:17.966Z,26.30
2019-03-20T14:07:46.919Z,26.90
2019-03-20T14:10:25.049Z,27.50
2019-03-20T14:12:48.609Z,27.20
2019-03-20T14:15:17.893Z,27.80
2019-03-20T14:17:46.830Z,27.70
2019-03-20T14:20:18.138Z,27.60
2019-03-20T14:22:47.103Z,28.40
2019-03-20T14:25:16.088Z,27.50
2019-03-20T14:27:45.824Z,27.60
2019-03-20T14:30:17.470Z,28.00
2019-03-20T14:32:46.343Z,28.30
2019-03-20T14:35:15.694Z,28.50
2019-03-20T14:37:44.958Z,28.20
2019-03-20T14:40:14.400Z,29.00
2019-03-20T14:42:43.391Z,28.90
2019-03-20T14:45:13.802Z,28.00
2019-03-20T14:47:46.911Z,27.70
2019-03-20T14:50:17.831Z,27.00
2019-03-20T14:52:47.251Z,27.10
2019-03-20T14:55:16.210Z,27.20
2019-03-20T14:57:45.511Z,28.70
2019-03-20T15:00:28.295Z,28.80
2019-03-20T15:02:57.324Z,29.20
2019-03-20T15:05:26.214Z,29.90
2019-03-20T15:07:55.169Z,29.30
2019-03-20T15:10:24.880Z,29.30
2019-03-20T15:12:53.950Z,28.90
2019-03-20T15:15:35.290Z,28.90
2019-03-20T15:18:04.723Z,29.80
2019-03-20T15:20:33.631Z,29.20
2019-03-20T15:23:03.633Z,29.70
2019-03-20T15:25:32.592Z,29.80
2019-03-20T15:28:01.891Z,30.10
2019-03-20T15:30:30.899Z,29.60
2019-03-20T15:33:00.011Z,30.00
2019-03-20T15:35:29.002Z,29.80
2019-03-20T15:37:57.883Z,30.10
2019-03-20T15:40:26.859Z,30.90
2019-03-20T15:42:55.669Z,31.00
2019-03-20T15:45:24.947Z,31.00
2019-03-20T15:47:53.951Z,30.90
2019-03-20T15:50:23.010Z,30.90
2019-03-20T15:52:52.051Z,30.90
2019-03-20T15:55:24.098Z,32.00
2019-03-20T15:57:53.082Z,31.90
2019-03-20T16:00:22.184Z,32.50
2019-03-20T16:02:52.225Z,33.10
2019-03-20T16:05:21.519Z,33.30
2019-03-20T16:07:50.380Z,32.10
2019-03-20T16:10:20.619Z,32.20
2019-03-20T16:12:49.701Z,31.60
2019-03-20T16:15:20.119Z,31.70
2019-03-20T16:17:49.201Z,32.00
2019-03-20T16:20:18.371Z,32.40
2019-03-20T16:22:47.272Z,32.80
2019-03-20T16:25:16.609Z,33.60
2019-03-20T16:27:45.618Z,32.90
2019-03-20T16:30:17.127Z,33.50
2019-03-20T16:32:46.126Z,33.80
2019-03-20T16:35:15.159Z,35.50
2019-03-20T16:37:44.291Z,36.30
2019-03-20T16:40:15.911Z,34.90
2019-03-20T16:42:44.847Z,33.80
2019-03-20T16:45:16.352Z,33.90
2019-03-20T16:47:45.533Z,35.40
2019-03-20T16:50:15.157Z,36.20
2019-03-20T16:52:44.435Z,36.40
2019-03-20T16:55:13.837Z,37.30
2019-03-20T16:57:43.293Z,38.00
2019-03-20T17:00:15.467Z,37.70
2019-03-20T17:02:44.425Z,38.70
2019-03-20T17:05:13.516Z,39.80
2019-03-20T17:07:42.371Z,40.40
2019-03-20T17:10:14.860Z,41.20
2019-03-20T17:12:44.078Z,42.10
2019-03-20T17:15:16.391Z,42.60
2019-03-20T17:17:45.432Z,43.00
2019-03-20T17:20:14.640Z,43.50
2019-03-20T17:22:43.546Z,44.20
2019-03-20T17:25:13.030Z,45.00
2019-03-20T17:27:42.036Z,44.50
2019-03-20T17:30:23.319Z,45.00
2019-03-20T17:32:52.135Z,49.60
2019-03-20T17:35:21.279Z,46.10
2019-03-20T17:37:50.401Z,46.80
2019-03-20T17:40:20.131Z,46.90
2019-03-20T17:42:49.110Z,46.90
2019-03-20T17:45:19.366Z,49.40
2019-03-20T17:47:48.412Z,48.30
2019-03-20T17:50:19.966Z,48.20
2019-03-20T17:52:48.958Z,49.80
2019-03-20T17:55:17.880Z,49.70
2019-03-20T17:57:47.141Z,52.80
2019-03-20T18:00:19.923Z,51.60
2019-03-20T18:02:48.921Z,52.60
2019-03-20T18:05:18.125Z,53.50
2019-03-20T18:07:47.086Z,54.50
2019-03-20T18:10:16.509Z,56.20
2019-03-20T18:12:45.619Z,57.30
2019-03-20T18:15:15.236Z,58.40
2019-03-20T18:17:44.311Z,58.90
2019-03-20T18:20:13.590Z,60.00
2019-03-20T18:22:42.828Z,60.40
2019-03-20T18:25:12.102Z,60.90
2019-03-20T18:27:41.030Z,62.00
2019-03-20T18:30:14.527Z,64.30
2019-03-20T18:32:43.488Z,63.80
2019-03-20T18:35:12.542Z,65.00
2019-03-20T18:37:41.681Z,65.90
2019-03-20T18:40:12.096Z,68.20
2019-03-20T18:42:41.043Z,70.00
2019-03-20T18:45:10.941Z,72.10
2019-03-20T18:47:40.227Z,73.10
2019-03-20T18:50:09.249Z,74.90
2019-03-20T18:52:38.576Z,75.90
2019-03-20T18:55:09.058Z,77.10
2019-03-20T18:57:38.160Z,80.10
2019-03-20T19:00:11.662Z,80.70
2019-03-20T19:02:40.567Z,81.10
2019-03-20T19:05:11.834Z,81.10
2019-03-20T19:07:41.077Z,81.20
2019-03-20T19:10:10.197Z,81.30
2019-03-20T19:12:39.406Z,82.40
2019-03-20T19:15:09.330Z,82.40
2019-03-20T19:17:38.309Z,82.50
2019-03-20T19:20:07.849Z,83.20
2019-03-20T19:22:36.870Z,83.90
2019-03-20T19:25:06.409Z,84.40
2019-03-20T19:27:35.784Z,84.90
2019-03-20T19:30:05.643Z,85.50
2019-03-20T19:32:40.538Z,87.30
2019-03-20T19:35:09.872Z,88.50
2019-03-20T19:37:38.909Z,88.90
2019-03-20T19:40:08.213Z,89.80
2019-03-20T19:42:37.526Z,90.00
2019-03-20T19:45:07.035Z,90.00
2019-03-20T19:47:35.974Z,90.30
2019-03-20T19:50:06.119Z,90.70
2019-03-20T19:52:34.941Z,91.00
2019-03-20T19:55:04.322Z,90.90
2019-03-20T19:57:33.507Z,91.20
2019-03-20T20:00:03.594Z,91.80
2019-03-20T20:02:32.652Z,92.40
2019-03-20T20:05:01.544Z,92.90
2019-03-20T20:07:30.610Z,93.20
2019-03-20T20:09:59.444Z,93.30
2019-03-20T20:12:31.424Z,93.20
2019-03-20T20:14:59.372Z,94.00
2019-03-20T20:17:28.283Z,93.90
2019-03-20T20:19:57.338Z,94.10
2019-03-20T20:22:26.434Z,94.20
2019-03-20T20:24:55.899Z,94.70
2019-03-20T20:27:24.880Z,95.40
2019-03-20T20:29:54.214Z,96.00
2019-03-20T20:32:23.019Z,96.70
2019-03-20T20:34:51.896Z,96.40
2019-03-20T20:37:21.270Z,96.80
2019-03-20T20:39:50.176Z,97.30
2019-03-20T20:42:19.003Z,97.20
2019-03-20T20:44:48.049Z,97.70
2019-03-20T20:47:16.955Z,97.80
2019-03-20T20:49:46.251Z,98.00
2019-03-20T20:52:19.664Z,98.10
2019-03-20T20:54:45.838Z,98.00
2019-03-20T20:57:14.687Z,98.10
2019-03-20T20:59:43.570Z,98.50
2019-03-20T21:02:12.501Z,98.40
2019-03-20T21:04:41.328Z,98.70
2019-03-20T21:07:10.239Z,99.00
2019-03-20T21:09:39.112Z,99.20
2019-03-20T21:12:08.378Z,99.40
2019-03-20T21:14:37.277Z,99.80
2019-03-20T21:17:09.867Z,99.80
2019-03-20T21:19:40.195Z,99.90
2019-03-20T21:22:46.806Z,99.80
2019-03-20T21:25:17.758Z,99.80
2019-03-20T21:28:30.535Z,99.90
2019-03-20T21:31:37.080Z,99.90
2019-03-20T21:34:49.370Z,99.90
2019-03-20T21:37:35.461Z,99.90
2019-03-20T21:40:06.107Z,99.90
2019-03-20T21:43:17.963Z,99.90
2019-03-20T21:46:07.570Z,99.90
2019-03-20T21:48:37.046Z,99.90
2019-03-20T21:51:17.227Z,99.90
2019-03-20T21:54:40.583Z,99.90
2019-03-20T21:57:51.951Z,99.90
2019-03-20T22:01:10.329Z,99.90
2019-03-20T22:03:39.976Z,99.90
2019-03-20T22:06:45.728Z,99.90
2019-03-20T22:09:59.698Z,99.90
2019-03-20T22:12:40.449Z,99.90
2019-03-20T22:15:21.263Z,99.90
2019-03-20T22:18:24.255Z,99.90
2019-03-20T22:21:43.536Z,99.90
2019-03-20T22:24:50.820Z,99.90
2019-03-20T22:27:55.351Z,99.90
2019-03-20T22:30:25.159Z,99.90
2019-03-20T22:33:43.215Z,99.90
2019-03-20T22:36:25.472Z,99.90
2019-03-20T22:39:41.935Z,99.90
2019-03-20T22:42:35.774Z,99.90
2019-03-20T22:45:31.706Z,99.90
2019-03-20T22:48:39.430Z,99.90
2019-03-20T22:51:35.250Z,99.90
2019-03-20T22:54:51.826Z,99.90
2019-03-20T22:57:39.449Z,99.90
2019-03-20T23:00:09.415Z,99.90
2019-03-20T23:02:54.611Z,99.90
2019-03-20T23:05:24.127Z,99.90
2019-03-20T23:07:53.502Z,99.90
2019-03-20T23:10:22.948Z,99.90
2019-03-20T23:12:52.312Z,99.90
2019-03-20T23:15:22.377Z,99.90
2019-03-20T23:17:51.815Z,99.90
2019-03-20T23:20:23.122Z,99.90
2019-03-20T23:22:52.823Z,99.90
2019-03-20T23:25:22.425Z,99.90
2019-03-20T23:27:51.873Z,99.90
2019-03-20T23:30:23.903Z,99.90
2019-03-20T23:32:53.353Z,99.90
2019-03-20T23:35:22.883Z,99.90
2019-03-20T23:37:52.258Z,99.90
2019-03-20T23:40:21.599Z,99.90
2019-03-20T23:42:51.243Z,99.90
2019-03-20T23:45:21.007Z,99.90
2019-03-20T23:48:15.947Z,99.90
2019-03-20T23:50:46.392Z,99.90
2019-03-20T23:53:16.183Z,99.90
2019-03-20T23:55:45.640Z,99.90
2019-03-20T23:58:15.022Z,99.90
